Airfield :
LOGIN :

Register | Disclaimer

   EN    FR    IT 

 










Legend :    VFR   Marginal VFR   IFR   Intensive IFR   Very Intensive IFR
Visi :
Ceiling :
>= 8 km
>= 3000ft
5 to 8 km
1000 to 3000 ft
1500m to 5 km
500 to 1000 ft
800 to 1500m
200 to 500 ft
< 800m
< 200 ft
Symbols :   Thunderstorms  Fog  Heavy snow  Heavy precipitations  Wind > 20 kt
SIGMETs :     Misc.  Thunderstorms  Icing  Turbulence  Mountain Waves  Volcanic Ashes






- Airport Elevation : 0 ft


ENOA - Oseberg A Platform

CURRENT METAR :
  • 250450Z 17024KT 0050 VV001 OVC002 13/13 Q1015 W///S4

EXPIRED METARs :
  • 250420Z 16025KT 0050 FG VV002 13/12 Q1015 W///S4
  • 250350Z 17024KT 0100 FG VV002 13/12 Q1015 W///S4
  • 250320Z 17026KT 0500 FG VV002 13/13 Q1015 W///S4
  • 250250Z 17024KT 0050 FG VV002 13/13 Q1015 W///S4
  • 250220Z 18025KT 0050 FG VV002 13/12 Q1015 W///S4
  • 250150Z 17024KT 0050 FG VV003 13/13 Q1015 W///S4
  • 250120Z 18023KT 3000 BR OVC003 13/12 Q1016 W///S4
  • 250050Z 17022KT 0100 FG VV003 13/12 Q1016 W///S4
  • 250020Z 18023KT 0150 FG VV003 13/12 Q1016 W///S4

TAF TAF ENOA
Valid from the 25 at 03:00 until the 26 at 03:00 UTC


250200Z 2503/2603 18025KT 6000 SCT003
TEMPO 2503/2508 0050 FG VV001
BECMG 2508/2511 24015KT
PROB30
TEMPO 2508/2521 1200 BR BKN003
BECMG 2512/2514 33015KT
TEMPO 2521/2603 BKN008



MET'MAP, your aeronautical weather chart ! - Copyright ORBIFLY December 2007 - Disclaimer

ORBIFLY MET'MAP TEAM :

Programming & Development : Alexandra Zaïnal
Original concept : Baudouin d'Aumeries
Technical & hardware support : Manuel Goepfert
Assistance : Marc-Olivier Méhu




SOURCES & CREDITS :

   NOAA